Time;durP1;ratioP1;P1;durP2;ratioP2;P2;SDS_P1;SDS_P2;PMS_P1;PMS_P2;Temp;Humidity;BMP_temperature;BMP_pressure;BME280_temperature;BME280_humidity;BME280_pressure;Samples;Min_cycle;Max_cycle;Signal;HPM_P1;HPM_P2
2021/12/17 00:00:09;;;;;;;45.60;24.80;;;;;;;5.59;64.42;100849.31;117289;1185;23576;-59
2021/12/17 00:05:15;;;;;;;42.40;24.20;;;;;;;5.59;64.25;100848.27;117355;1188;22883;-60
2021/12/17 00:07:44;;;;;;;42.90;22.80;;;;;;;5.59;64.26;100845.31;117274;1182;22979;-60
2021/12/17 00:10:17;;;;;;;47.30;24.60;;;;;;;5.59;64.45;100843.39;117388;1186;21858;-58
2021/12/17 00:12:46;;;;;;;51.70;25.70;;;;;;;5.59;64.39;100843.05;117402;1185;22454;-62
2021/12/17 00:15:14;;;;;;;50.60;24.90;;;;;;;5.59;64.40;100835.22;117417;1183;21860;-57
2021/12/17 00:17:52;;;;;;;41.60;22.50;;;;;;;5.60;64.46;100831.91;117280;1183;23697;-57
2021/12/17 00:20:49;;;;;;;51.00;27.50;;;;;;;5.60;64.27;100830.52;117345;1183;21905;-58
2021/12/17 00:48:36;;;;;;;48.70;27.30;;;;;;;5.77;64.40;100803.60;117314;1186;21919;-60
2021/12/17 00:54:02;;;;;;;60.30;30.40;;;;;;;5.82;64.31;100796.55;117256;1186;21936;-60
2021/12/17 00:56:30;;;;;;;;;;;;;;;5.81;64.47;100797.06;117299;1185;23692;-58
2021/12/17 00:58:58;;;;;;;50.70;28.10;;;;;;;5.84;64.58;100793.77;117278;1186;21871;-60
2021/12/17 01:01:27;;;;;;;54.90;28.50;;;;;;;5.86;64.21;100786.50;117335;1186;21908;-58
2021/12/17 01:03:55;;;;;;;62.10;31.70;;;;;;;5.91;64.34;100781.16;117274;1186;21858;-58
2021/12/17 01:06:24;;;;;;;58.50;31.40;;;;;;;5.93;64.34;100774.58;117372;1185;23448;-58
2021/12/17 01:08:52;;;;;;;55.70;29.40;;;;;;;5.88;64.59;100771.39;117287;1186;22652;-59
2021/12/17 01:11:38;;;;;;;58.90;31.40;;;;;;;5.88;64.62;100767.03;117258;1181;21979;-58
2021/12/17 01:14:06;;;;;;;55.60;30.00;;;;;;;5.88;64.35;100763.71;117343;1186;21867;-57
2021/12/17 01:16:36;;;;;;;55.20;31.40;;;;;;;5.89;64.39;100763.20;117356;1186;21849;-60
2021/12/17 01:22:12;;;;;;;54.70;31.80;;;;;;;5.92;64.59;100754.37;117245;1185;22860;-60
2021/12/17 01:24:45;;;;;;;57.50;31.60;;;;;;;5.94;64.05;100751.27;117276;1189;22008;-60
2021/12/17 01:35:34;;;;;;;54.30;30.40;;;;;;;6.02;64.56;100725.25;117333;1185;21901;-57
2021/12/17 01:43:14;;;;;;;46.70;27.20;;;;;;;6.06;64.52;100716.59;117379;1186;21861;-61
2021/12/17 01:45:42;;;;;;;49.20;29.90;;;;;;;6.09;64.50;100710.88;117121;1188;21899;-61
2021/12/17 01:48:15;;;;;;;50.20;28.30;;;;;;;6.11;64.36;100706.89;117254;1186;24164;-61
2021/12/17 01:56:37;;;;;;;40.00;23.80;;;;;;;6.11;64.53;100697.82;117258;1186;21857;-61
2021/12/17 02:02:00;;;;;;;39.00;24.50;;;;;;;6.14;64.35;100688.62;117304;1186;23147;-57
2021/12/17 02:04:32;;;;;;;43.20;25.40;;;;;;;6.14;64.48;100688.45;117266;1186;21972;-57
2021/12/17 02:07:01;;;;;;;41.50;25.00;;;;;;;6.15;64.70;100688.98;117275;1186;21871;-61
2021/12/17 02:32:04;;;;;;;28.70;17.60;;;;;;;6.20;64.69;100671.27;117234;1185;23464;-61
2021/12/17 02:37:12;;;;;;;26.20;16.40;;;;;;;6.22;64.68;100659.27;117276;1183;21860;-62
2021/12/17 02:45:34;;;;;;;20.70;13.00;;;;;;;6.30;64.77;100649.05;117218;1186;21851;-58
2021/12/17 02:48:02;;;;;;;19.20;12.50;;;;;;;6.32;64.81;100640.88;117322;1186;23746;-62
2021/12/17 02:50:36;;;;;;;17.30;12.00;;;;;;;6.36;64.61;100636.57;117227;1186;21867;-61
2021/12/17 02:53:07;;;;;;;19.50;12.40;;;;;;;6.41;64.95;100634.86;117297;1186;23563;-61
2021/12/17 02:55:38;;;;;;;21.50;13.10;;;;;;;6.45;64.79;100629.49;117334;1186;21876;-62
2021/12/17 02:58:07;;;;;;;21.10;12.10;;;;;;;6.48;64.58;100628.48;117321;1186;21859;-62
2021/12/17 03:00:36;;;;;;;20.30;13.20;;;;;;;6.51;64.51;100626.39;117251;1186;24135;-59
2021/12/17 03:03:06;;;;;;;19.10;12.20;;;;;;;6.52;64.51;100626.93;117306;1185;23464;-58
2021/12/17 03:05:35;;;;;;;17.90;12.00;;;;;;;6.53;64.58;100628.33;117387;1185;23435;-62
2021/12/17 03:08:06;;;;;;;19.70;12.30;;;;;;;6.54;64.58;100625.91;117245;1184;21999;-58
2021/12/17 03:10:34;;;;;;;18.30;12.10;;;;;;;6.55;64.37;100627.84;117362;1182;23541;-61
2021/12/17 03:13:06;;;;;;;21.40;12.30;;;;;;;6.57;64.50;100624.54;117352;1185;21855;-58
2021/12/17 03:15:45;;;;;;;14.50;10.60;;;;;;;6.58;64.45;100623.15;117369;1182;22914;-57
2021/12/17 03:23:42;;;;;;;16.80;10.40;;;;;;;6.64;64.59;100615.00;117330;1186;21851;-60
2021/12/17 03:26:15;;;;;;;15.40;10.60;;;;;;;6.66;64.57;100612.22;117349;1183;24691;-59
2021/12/17 03:28:46;;;;;;;15.40;10.20;;;;;;;6.68;64.99;100607.19;117330;1185;22965;-61
2021/12/17 03:31:14;;;;;;;14.40;10.30;;;;;;;6.71;64.72;100608.95;117356;1185;23551;-60
2021/12/17 03:33:44;;;;;;;16.40;10.70;;;;;;;6.74;64.87;100608.10;117252;1186;22005;-57
2021/12/17 03:36:15;;;;;;;13.90;10.40;;;;;;;6.76;64.76;100602.35;117359;1185;21862;-57
2021/12/17 03:38:45;;;;;;;16.50;12.10;;;;;;;6.79;64.58;100594.53;117295;1189;23096;-61
2021/12/17 03:41:19;;;;;;;19.00;11.80;;;;;;;6.83;64.63;100594.73;117439;1186;22924;-61
2021/12/17 03:43:55;;;;;;;15.30;10.50;;;;;;;6.87;64.68;100591.77;117277;1186;22837;-58
2021/12/17 03:46:23;;;;;;;16.20;11.80;;;;;;;6.89;64.80;100586.04;117336;1185;23442;-58
2021/12/17 03:48:52;;;;;;;17.60;12.40;;;;;;;6.93;64.54;100584.84;117197;1186;21871;-61
2021/12/17 03:51:21;;;;;;;18.90;12.50;;;;;;;6.96;64.94;100581.90;117456;1186;23458;-61
2021/12/17 03:53:54;;;;;;;18.80;12.60;;;;;;;6.99;64.78;100581.75;117249;1186;22911;-62
2021/12/17 03:56:24;;;;;;;16.20;11.80;;;;;;;7.02;64.84;100576.18;117281;1185;22905;-62
2021/12/17 03:58:53;;;;;;;14.60;11.40;;;;;;;7.05;64.53;100573.75;117422;1185;23635;-58
2021/12/17 04:01:22;;;;;;;15.90;11.80;;;;;;;7.08;64.73;100569.22;117381;1186;22465;-58
2021/12/17 04:03:50;;;;;;;15.20;11.00;;;;;;;7.07;64.95;100558.74;117270;1189;21867;-62
2021/12/17 04:06:19;;;;;;;16.20;12.10;;;;;;;7.08;64.89;100553.70;117307;1186;21863;-61
2021/12/17 04:08:48;;;;;;;15.70;11.00;;;;;;;7.08;64.79;100552.99;117391;1180;21862;-61
2021/12/17 04:11:19;;;;;;;12.60;9.80;;;;;;;7.13;64.67;100554.95;117370;1182;21848;-62
2021/12/17 04:13:55;;;;;;;16.60;9.80;;;;;;;7.19;64.42;100569.80;117283;1186;21852;-58
2021/12/17 04:16:28;;;;;;;13.40;10.20;;;;;;;7.15;64.80;100569.61;117334;1183;23646;-61
2021/12/17 04:18:55;;;;;;;15.90;10.70;;;;;;;7.17;64.67;100571.53;117440;1185;21851;-58
2021/12/17 04:21:24;;;;;;;13.90;10.30;;;;;;;7.19;64.63;100572.06;117273;1186;21857;-61
2021/12/17 04:23:54;;;;;;;13.10;10.20;;;;;;;7.29;64.63;100569.49;117313;1186;21876;-58
2021/12/17 04:26:26;;;;;;;14.20;10.60;;;;;;;7.25;64.69;100568.08;117316;1185;23470;-61
2021/12/17 04:28:54;;;;;;;15.90;11.30;;;;;;;7.25;64.79;100565.30;117325;1186;21925;-57
2021/12/17 04:31:29;;;;;;;14.60;11.20;;;;;;;7.26;64.61;100561.29;117274;1188;21891;-60
2021/12/17 04:33:57;;;;;;;17.40;11.30;;;;;;;7.27;64.72;100560.41;117255;1183;21871;-61
2021/12/17 04:36:30;;;;;;;16.00;10.50;;;;;;;7.29;64.53;100565.30;117375;1185;21872;-57
2021/12/17 04:39:00;;;;;;;14.50;10.80;;;;;;;7.29;64.57;100564.26;117298;1186;21850;-57
2021/12/17 04:46:50;;;;;;;15.00;10.60;;;;;;;7.32;64.76;100563.21;117298;1186;22827;-57
2021/12/17 04:57:43;;;;;;;14.90;11.80;;;;;;;7.36;64.56;100570.04;117233;1186;21870;-58
2021/12/17 05:00:18;;;;;;;16.80;11.40;;;;;;;7.37;64.53;100572.33;117327;1186;21845;-61
2021/12/17 05:02:49;;;;;;;17.50;11.80;;;;;;;7.36;64.45;100575.98;117375;1186;23435;-61
2021/12/17 05:05:20;;;;;;;17.00;11.80;;;;;;;7.37;64.44;100573.89;117337;1186;23541;-57
2021/12/17 05:07:56;;;;;;;14.70;10.50;;;;;;;7.38;64.62;100574.77;117283;1182;21881;-61
2021/12/17 05:18:55;;;;;;;24.20;12.10;;;;;;;7.34;64.73;100573.36;117448;1183;21858;-62
2021/12/17 05:21:25;;;;;;;14.50;10.40;;;;;;;7.36;64.55;100575.11;117306;1182;21861;-61
2021/12/17 05:23:53;;;;;;;14.90;10.50;;;;;;;7.35;64.73;100574.76;117253;1186;23554;-61
2021/12/17 05:26:21;;;;;;;18.40;12.20;;;;;;;7.34;64.61;100571.95;117321;1185;22850;-60
2021/12/17 05:28:50;;;;;;;15.10;10.60;;;;;;;7.33;64.62;100572.65;117375;1183;22434;-59
2021/12/17 05:31:21;;;;;;;13.70;10.50;;;;;;;7.33;64.63;100573.16;117363;1186;22912;-64
2021/12/17 05:33:51;;;;;;;18.10;11.00;;;;;;;7.31;64.69;100568.97;117368;1179;22846;-63
2021/12/17 05:36:23;;;;;;;14.50;10.20;;;;;;;7.31;64.49;100570.02;117320;1186;21864;-61
2021/12/17 05:38:51;;;;;;;14.20;10.40;;;;;;;7.30;64.95;100564.27;117387;1186;23622;-64
2021/12/17 05:41:20;;;;;;;32.90;12.20;;;;;;;7.30;64.70;100562.69;117328;1186;21866;-65
2021/12/17 05:43:56;;;;;;;20.20;10.80;;;;;;;7.32;64.77;100564.62;117261;1185;23535;-61
2021/12/17 05:46:48;;;;;;;18.30;10.80;;;;;;;7.31;64.61;100570.19;117343;1186;21862;-65
2021/12/17 05:49:21;;;;;;;14.60;9.70;;;;;;;7.31;64.66;100574.04;117331;1186;21861;-66
2021/12/17 05:51:49;;;;;;;20.10;9.90;;;;;;;7.30;64.76;100573.34;117373;1183;21865;-64
2021/12/17 05:54:18;;;;;;;14.00;9.80;;;;;;;7.31;64.62;100571.25;117373;1186;23438;-62
2021/12/17 05:56:46;;;;;;;16.00;10.80;;;;;;;7.30;64.92;100574.22;117332;1186;23532;-63
2021/12/17 05:59:14;;;;;;;14.10;9.60;;;;;;;7.33;64.65;100571.43;117330;1186;21858;-62
2021/12/17 06:01:43;;;;;;;12.10;9.60;;;;;;;7.26;64.82;100570.19;117322;1186;24159;-63
2021/12/17 06:04:11;;;;;;;12.80;9.50;;;;;;;7.25;64.74;100569.30;117315;1186;21858;-63
2021/12/17 06:06:45;;;;;;;13.50;8.90;;;;;;;7.32;64.71;100571.42;117306;1186;22901;-61
2021/12/17 06:09:32;;;;;;;12.00;9.20;;;;;;;7.29;64.43;100571.25;117360;1182;21962;-61
2021/12/17 06:12:01;;;;;;;12.70;9.50;;;;;;;7.28;64.66;100569.84;117372;1182;23516;-60
2021/12/17 06:14:30;;;;;;;15.30;9.70;;;;;;;7.28;64.39;100575.25;117347;1183;23462;-59
2021/12/17 06:16:58;;;;;;;13.20;9.50;;;;;;;7.24;64.43;100576.46;117354;1185;21895;-59
2021/12/17 06:19:27;;;;;;;14.70;10.10;;;;;;;7.10;64.64;100580.05;117297;1186;21833;-59
2021/12/17 06:21:58;;;;;;;16.60;10.30;;;;;;;7.08;64.80;100584.91;117352;1182;23461;-62
2021/12/17 06:24:27;;;;;;;13.40;9.10;;;;;;;7.06;64.79;100586.84;117368;1182;22960;-61
2021/12/17 06:26:55;;;;;;;12.60;9.10;;;;;;;7.05;64.81;100581.42;117379;1185;22009;-62
2021/12/17 06:29:23;;;;;;;13.70;9.90;;;;;;;7.04;64.79;100580.02;117350;1185;21863;-60
2021/12/17 06:31:51;;;;;;;12.90;9.60;;;;;;;7.04;64.86;100579.86;117287;1185;23473;-60
2021/12/17 06:34:19;;;;;;;15.20;10.50;;;;;;;7.05;64.90;100577.94;117319;1185;23531;-62
2021/12/17 06:36:47;;;;;;;12.40;8.70;;;;;;;7.05;64.85;100580.73;117359;1185;21866;-62
2021/12/17 06:39:16;;;;;;;12.70;9.30;;;;;;;7.05;64.95;100581.60;117347;1183;23547;-62
2021/12/17 06:41:44;;;;;;;15.20;9.50;;;;;;;7.03;65.01;100577.23;117382;1186;23561;-62
2021/12/17 06:44:15;;;;;;;13.60;8.90;;;;;;;7.02;64.96;100576.52;117276;1186;22915;-62
2021/12/17 06:46:55;;;;;;;13.00;8.70;;;;;;;7.06;64.98;100577.60;117406;1182;22650;-61
2021/12/17 06:49:31;;;;;;;15.80;9.80;;;;;;;7.16;65.21;100575.38;117297;1186;21868;-61
2021/12/17 07:10:54;;;;;;;14.50;8.10;;;;;;;7.42;65.04;100570.77;117294;1182;23436;-63
2021/12/17 07:21:54;;;;;;;8.10;5.10;;;;;;;7.55;65.05;100570.30;117304;1185;21871;-61
2021/12/17 07:35:37;;;;;;;7.20;4.50;;;;;;;7.87;65.14;100566.18;117373;1185;21857;-61
2021/12/17 07:38:50;;;;;;;7.80;4.50;;;;;;;7.89;65.13;100563.58;117348;1182;23554;-60
2021/12/17 07:40:53;;;;;;;6.90;4.80;;;;;;;7.86;64.92;100568.27;117072;1186;21868;-60
2021/12/17 07:43:35;;;;;;;6.30;3.60;;;;;;;7.83;64.97;100571.76;117480;1185;23566;-60
2021/12/17 07:46:09;;;;;;;11.60;6.00;;;;;;;7.77;64.99;100572.80;119386;1182;21816;-61
2021/12/17 07:48:37;;;;;;;6.90;3.90;;;;;;;7.71;64.76;100582.73;118715;1183;21968;-60
2021/12/17 07:51:11;;;;;;;6.70;3.70;;;;;;;7.66;64.90;100577.66;117318;1186;21858;-60
2021/12/17 07:53:39;;;;;;;8.20;3.70;;;;;;;7.60;64.77;100579.74;117399;1185;23541;-60
2021/12/17 07:56:14;;;;;;;8.00;4.50;;;;;;;7.56;64.92;100575.35;117349;1184;21852;-60
2021/12/17 07:58:42;;;;;;;11.40;4.90;;;;;;;7.53;64.94;100577.27;117350;1186;22903;-61
2021/12/17 08:01:10;;;;;;;6.70;3.90;;;;;;;7.53;64.70;100580.06;117346;1186;23461;-61
2021/12/17 08:03:39;;;;;;;6.10;3.40;;;;;;;7.52;64.91;100582.32;117316;1176;21863;-62
2021/12/17 08:06:08;;;;;;;6.40;3.40;;;;;;;7.50;65.00;100581.29;117318;1184;21893;-60
2021/12/17 08:08:43;;;;;;;6.30;3.70;;;;;;;7.50;65.13;100586.52;117283;1188;21873;-61
2021/12/17 08:11:12;;;;;;;8.00;3.90;;;;;;;7.51;65.00;100589.48;117284;1188;23435;-60
2021/12/17 08:13:43;;;;;;;8.40;4.00;;;;;;;7.50;64.96;100586.18;117256;1186;23566;-60
2021/12/17 08:24:45;;;;;;;6.50;3.50;;;;;;;7.48;64.89;100574.29;117506;1185;21857;-60
2021/12/17 08:27:22;;;;;;;5.60;3.50;;;;;;;7.48;64.98;100572.89;117221;1186;24265;-61
2021/12/17 08:32:57;;;;;;;7.80;3.40;;;;;;;7.46;64.98;100573.92;117109;1188;23452;-60
2021/12/17 08:35:25;;;;;;;5.50;3.30;;;;;;;7.44;64.73;100574.45;117347;1184;21861;-61
2021/12/17 08:37:54;;;;;;;6.70;3.50;;;;;;;7.42;64.92;100576.53;117306;1182;22757;-61
2021/12/17 08:40:26;;;;;;;7.20;3.70;;;;;;;7.42;64.83;100579.67;117350;1182;23426;-61
2021/12/17 08:42:57;;;;;;;7.90;3.70;;;;;;;7.42;64.98;100580.55;117393;1183;23486;-60
2021/12/17 08:45:26;;;;;;;8.10;3.80;;;;;;;7.40;64.94;100572.16;117072;1184;22761;-60
2021/12/17 08:47:54;;;;;;;13.30;4.40;;;;;;;7.39;64.84;100572.67;117356;1183;21867;-60
2021/12/17 08:50:22;;;;;;;9.00;4.20;;;;;;;7.38;65.06;100567.09;117356;1183;23458;-60
2021/12/17 08:52:51;;;;;;;7.70;4.30;;;;;;;7.37;65.11;100569.52;117301;1186;23066;-60
2021/12/17 08:55:19;;;;;;;8.20;4.30;;;;;;;7.35;64.87;100571.43;117316;1186;23553;-60
2021/12/17 08:57:47;;;;;;;9.70;4.80;;;;;;;7.33;65.05;100566.02;117407;1183;21859;-60
2021/12/17 09:00:16;;;;;;;6.70;4.60;;;;;;;7.31;65.06;100563.73;117384;1186;21861;-61
2021/12/17 09:02:44;;;;;;;10.20;6.30;;;;;;;7.31;65.12;100560.59;117311;1184;22843;-60
2021/12/17 09:05:12;;;;;;;9.00;5.80;;;;;;;7.31;64.89;100560.25;117333;1186;22938;-61
2021/12/17 09:07:41;;;;;;;9.60;5.30;;;;;;;7.32;65.09;100556.94;117319;1184;23472;-61
2021/12/17 09:10:11;;;;;;;10.70;6.00;;;;;;;7.31;65.06;100559.55;117226;1184;21867;-61
2021/12/17 09:12:41;;;;;;;9.30;5.00;;;;;;;7.33;65.14;100555.55;117325;1186;21863;-61
2021/12/17 09:15:10;;;;;;;11.50;5.20;;;;;;;7.32;64.86;100555.55;117341;1186;23706;-61
2021/12/17 09:17:38;;;;;;;9.60;4.90;;;;;;;7.31;65.13;100549.44;117398;1186;23554;-61
2021/12/17 09:20:08;;;;;;;10.30;5.70;;;;;;;7.29;65.20;100545.40;117453;1183;21889;-61
2021/12/17 09:22:36;;;;;;;9.50;4.90;;;;;;;7.31;65.00;100539.65;117343;1185;21873;-61
2021/12/17 09:25:05;;;;;;;9.60;4.50;;;;;;;7.33;64.99;100540.02;117381;1186;22809;-61
2021/12/17 09:27:34;;;;;;;8.30;4.50;;;;;;;7.33;65.00;100539.30;117317;1184;22632;-61
2021/12/17 09:30:04;;;;;;;13.30;6.20;;;;;;;7.35;64.98;100541.94;117319;1185;21861;-61
2021/12/17 09:32:39;;;;;;;8.20;4.60;;;;;;;7.34;64.95;100537.05;117294;1185;21870;-61
2021/12/17 09:35:08;;;;;;;8.80;4.80;;;;;;;7.35;64.93;100533.04;117344;1185;22812;-59
2021/12/17 09:37:37;;;;;;;8.00;4.80;;;;;;;7.38;65.14;100527.80;117376;1185;23583;-59
2021/12/17 09:40:09;;;;;;;7.60;4.50;;;;;;;7.41;65.09;100526.77;117315;1186;23279;-61
2021/12/17 09:42:39;;;;;;;6.60;3.60;;;;;;;7.47;65.25;100524.01;117344;1185;23436;-60
2021/12/17 09:45:07;;;;;;;9.70;4.20;;;;;;;7.53;65.29;100519.64;117273;1178;21878;-60
2021/12/17 09:47:35;;;;;;;7.70;4.00;;;;;;;7.56;65.08;100518.60;117395;1185;22833;-60
2021/12/17 09:50:05;;;;;;;12.40;4.70;;;;;;;7.59;64.99;100518.61;117381;1185;23102;-60
2021/12/17 09:52:34;;;;;;;;;;;;;;;7.62;65.30;100515.48;117386;1185;23439;-60
2021/12/17 09:55:04;;;;;;;5.30;3.30;;;;;;;7.65;65.18;100517.05;117328;1185;23897;-60
2021/12/17 09:57:35;;;;;;;5.90;3.30;;;;;;;7.69;65.14;100514.45;117330;1185;22629;-60
2021/12/17 10:00:06;;;;;;;7.20;3.50;;;;;;;7.72;65.18;100513.05;117350;1185;21855;-59
2021/12/17 10:02:35;;;;;;;7.40;3.00;;;;;;;7.76;65.27;100506.41;117346;1184;22912;-60
2021/12/17 10:05:05;;;;;;;8.90;4.30;;;;;;;7.79;65.04;100502.73;117303;1185;21857;-60
2021/12/17 10:07:57;;;;;;;4.30;2.30;;;;;;;7.83;65.17;100501.18;117308;1185;21861;-60
2021/12/17 10:10:54;;;;;;;5.50;2.80;;;;;;;7.87;65.18;100497.18;117362;1188;21863;-60
2021/12/17 10:13:24;;;;;;;6.50;2.70;;;;;;;7.87;65.19;100490.89;117426;1185;23465;-60
2021/12/17 10:15:57;;;;;;;7.30;3.20;;;;;;;7.87;65.06;100495.42;117311;1186;22817;-60
2021/12/17 10:18:47;;;;;;;8.90;3.10;;;;;;;7.85;64.92;100493.85;117318;1186;22848;-60
2021/12/17 10:21:20;;;;;;;7.00;3.20;;;;;;;7.81;65.10;100490.17;117341;1185;21860;-62
2021/12/17 10:23:48;;;;;;;6.00;2.70;;;;;;;7.81;65.18;100489.48;117341;1184;21861;-63
2021/12/17 10:26:18;;;;;;;5.00;2.50;;;;;;;7.83;65.20;100486.67;117255;1185;22176;-61
2021/12/17 10:28:58;;;;;;;30.30;13.10;;;;;;;7.82;65.09;100483.02;117370;1183;22919;-61
2021/12/17 10:31:27;;;;;;;29.80;15.10;;;;;;;7.84;65.15;100480.23;117350;1185;22883;-61
2021/12/17 10:33:58;;;;;;;10.60;6.20;;;;;;;7.87;64.92;100478.66;117307;1185;21864;-60
2021/12/17 10:36:37;;;;;;;22.20;13.60;;;;;;;7.91;64.77;100473.94;117466;1183;24139;-60
2021/12/17 10:39:21;;;;;;;12.10;8.70;;;;;;;7.92;64.71;100472.53;117298;1182;23648;-61
2021/12/17 10:41:50;;;;;;;9.50;5.60;;;;;;;7.93;64.91;100472.71;117309;1182;21868;-61
2021/12/17 10:44:21;;;;;;;5.60;3.20;;;;;;;7.92;65.01;100468.52;117378;1183;23461;-61
2021/12/17 10:47:06;;;;;;;9.40;5.60;;;;;;;7.93;65.04;100466.60;117328;1182;23213;-61
2021/12/17 10:49:35;;;;;;;8.00;5.00;;;;;;;7.97;64.98;100461.16;117324;1182;24136;-61
2021/12/17 10:52:13;;;;;;;9.50;5.20;;;;;;;7.98;65.12;100460.13;117357;1182;23482;-61
2021/12/17 10:54:42;;;;;;;6.70;2.90;;;;;;;7.99;65.15;100459.59;117311;1186;21946;-61
2021/12/17 10:57:10;;;;;;;6.20;3.00;;;;;;;7.99;65.15;100459.42;117254;1182;22804;-61
2021/12/17 10:59:39;;;;;;;6.60;2.90;;;;;;;8.00;65.03;100455.04;118081;1185;21904;-60
2021/12/17 11:02:11;;;;;;;6.40;2.70;;;;;;;8.03;65.16;100454.36;117996;1185;23457;-61
2021/12/17 11:04:43;;;;;;;6.20;2.00;;;;;;;8.06;65.23;100454.35;117337;1185;22612;-61
2021/12/17 11:07:14;;;;;;;6.40;2.70;;;;;;;8.10;65.12;100446.66;117400;1185;21874;-61
2021/12/17 11:09:57;;;;;;;6.60;2.10;;;;;;;8.12;65.10;100444.74;117319;1185;22896;-60
2021/12/17 11:12:31;;;;;;;6.50;2.50;;;;;;;8.11;65.07;100442.82;117382;1182;22950;-61
2021/12/17 11:15:13;;;;;;;5.40;2.30;;;;;;;8.10;65.15;100440.73;117335;1186;22662;-61
2021/12/17 11:17:42;;;;;;;7.00;2.20;;;;;;;8.11;65.07;100437.05;117324;1186;21861;-61
2021/12/17 11:20:14;;;;;;;3.60;1.90;;;;;;;8.13;65.11;100436.54;117441;1185;21876;-60
2021/12/17 11:22:47;;;;;;;6.10;2.10;;;;;;;8.18;65.18;100431.45;117357;1185;23647;-60
2021/12/17 11:25:16;;;;;;;5.40;2.60;;;;;;;8.19;65.21;100430.73;117346;1186;21861;-60
2021/12/17 11:27:45;;;;;;;3.90;2.40;;;;;;;8.24;65.20;100431.44;117355;1183;23543;-60
2021/12/17 11:30:21;;;;;;;7.40;2.60;;;;;;;8.26;65.29;100433.52;117351;1185;22912;-60
2021/12/17 11:32:50;;;;;;;5.70;2.50;;;;;;;8.29;65.14;100431.77;117290;1182;21860;-59
2021/12/17 11:35:25;;;;;;;8.50;2.40;;;;;;;8.32;65.20;100425.47;117257;1182;21886;-59
2021/12/17 11:37:55;;;;;;;;;;;;;;;8.34;65.19;100422.50;117350;1182;22976;-59
2021/12/17 11:40:30;;;;;;;7.60;2.60;;;;;;;8.34;65.09;100419.36;117353;1186;22977;-59
2021/12/17 11:43:03;;;;;;;6.60;2.40;;;;;;;8.31;65.12;100417.95;117291;1188;21873;-60
2021/12/17 11:45:34;;;;;;;7.70;2.00;;;;;;;8.26;65.18;100417.78;117316;1180;21871;-59
2021/12/17 11:48:18;;;;;;;6.20;2.10;;;;;;;8.21;64.96;100419.55;117234;1184;22296;-58
2021/12/17 11:51:00;;;;;;;6.00;1.70;;;;;;;8.19;65.18;100421.66;117348;1184;21907;-59
2021/12/17 11:53:33;;;;;;;8.70;2.10;;;;;;;8.17;65.05;100417.81;117359;1185;23647;-59
2021/12/17 11:56:04;;;;;;;5.00;2.10;;;;;;;8.16;64.98;100422.36;116979;1187;24122;-59
2021/12/17 11:58:48;;;;;;;5.60;2.30;;;;;;;8.16;65.14;100420.61;117419;1185;21875;-58
2021/12/17 12:01:50;;;;;;;6.40;2.40;;;;;;;8.17;64.95;100417.98;117316;1186;21861;-58
2021/12/17 12:04:42;;;;;;;4.30;2.00;;;;;;;8.15;64.96;100419.40;117296;1178;21868;-59
2021/12/17 12:07:18;;;;;;;5.00;2.30;;;;;;;8.16;64.90;100417.11;117318;1185;23436;-59
2021/12/17 12:09:59;;;;;;;5.40;2.00;;;;;;;8.20;65.02;100412.39;117291;1186;22160;-60
2021/12/17 12:12:33;;;;;;;5.60;1.80;;;;;;;8.24;65.02;100411.86;117320;1186;21860;-60
2021/12/17 12:15:17;;;;;;;7.10;2.20;;;;;;;8.25;65.00;100413.24;117344;1184;23544;-59
2021/12/17 12:18:14;;;;;;;6.10;2.90;;;;;;;8.27;65.05;100415.17;117377;1184;23465;-59
2021/12/17 12:20:49;;;;;;;5.40;2.00;;;;;;;8.29;65.01;100418.14;117366;1185;22625;-59
2021/12/17 12:23:17;;;;;;;5.20;2.50;;;;;;;8.29;64.96;100419.38;117359;1186;23438;-59
2021/12/17 12:25:47;;;;;;;4.00;1.90;;;;;;;8.28;64.97;100422.70;117289;1184;22912;-59
2021/12/17 12:28:17;;;;;;;6.20;2.30;;;;;;;8.32;64.99;100423.38;117352;1185;22930;-59
2021/12/17 12:30:46;;;;;;;5.70;2.10;;;;;;;8.27;64.81;100421.99;117325;1186;22616;-61
2021/12/17 12:33:14;;;;;;;7.10;3.20;;;;;;;8.31;64.78;100422.33;117350;1183;21862;-59
2021/12/17 12:35:55;;;;;;;4.90;2.20;;;;;;;8.38;64.76;100422.14;117410;1186;23111;-59
2021/12/17 12:38:29;;;;;;;4.00;2.10;;;;;;;8.39;64.61;100419.52;117102;1186;21866;-59
2021/12/17 12:41:03;;;;;;;4.50;1.80;;;;;;;8.39;64.45;100417.93;117377;1182;21923;-59
2021/12/17 12:43:33;;;;;;;4.60;1.90;;;;;;;8.36;64.35;100413.58;117354;1185;23644;-59
2021/12/17 12:46:01;;;;;;;5.10;1.80;;;;;;;8.33;64.33;100415.86;117389;1184;21871;-59
2021/12/17 12:48:36;;;;;;;4.00;1.50;;;;;;;8.31;64.57;100413.95;117298;1185;24169;-61
2021/12/17 12:51:15;;;;;;;3.60;1.40;;;;;;;8.27;64.61;100419.54;117395;1183;21894;-61
2021/12/17 12:54:01;;;;;;;4.00;1.40;;;;;;;8.91;63.31;100420.48;117307;1183;22978;-59
2021/12/17 12:56:29;;;;;;;5.50;2.00;;;;;;;8.19;64.43;100426.73;117210;1190;21861;-59
2021/12/17 12:58:57;;;;;;;3.70;1.50;;;;;;;8.02;64.55;100431.11;117286;1185;21865;-59
2021/12/17 13:01:26;;;;;;;3.90;1.90;;;;;;;7.94;64.52;100437.23;119032;1185;21858;-59
2021/12/17 13:03:57;;;;;;;4.10;1.40;;;;;;;7.83;64.45;100437.06;117325;1186;22913;-60
2021/12/17 13:06:25;;;;;;;5.50;1.90;;;;;;;7.72;64.59;100438.81;117299;1183;22913;-60
2021/12/17 13:08:55;;;;;;;5.60;1.80;;;;;;;7.61;64.65;100437.76;117308;1188;21883;-60
2021/12/17 13:11:24;;;;;;;4.80;1.60;;;;;;;7.51;64.56;100436.01;117373;1185;21872;-61
2021/12/17 13:13:54;;;;;;;6.90;1.80;;;;;;;7.41;64.69;100441.05;117302;1186;23621;-60
2021/12/17 13:22:26;;;;;;;5.50;2.20;;;;;;;7.16;64.62;100446.40;117235;1183;21915;-61
2021/12/17 13:24:35;;;;;;;6.50;2.50;;;;;;;7.08;64.64;100448.64;117135;1187;23440;-61
2021/12/17 13:27:11;;;;;;;5.80;2.30;;;;;;;7.02;64.71;100449.85;117309;1184;24217;-61
2021/12/17 13:29:43;;;;;;;5.50;2.30;;;;;;;6.97;64.53;100450.36;117394;1180;21866;-60
2021/12/17 13:32:12;;;;;;;5.20;2.30;;;;;;;6.96;64.61;100448.96;117317;1184;23542;-60
2021/12/17 13:34:59;;;;;;;7.00;2.30;;;;;;;6.95;64.60;100446.16;117364;1184;21859;-59
2021/12/17 13:37:32;;;;;;;5.90;2.20;;;;;;;6.94;64.61;100445.81;117301;1184;24189;-61
2021/12/17 13:40:03;;;;;;;10.80;3.90;;;;;;;6.94;64.94;100443.02;117454;1186;21862;-60
2021/12/17 13:42:38;;;;;;;12.80;7.80;;;;;;;6.95;64.81;100446.16;117325;1184;22915;-60
2021/12/17 13:45:12;;;;;;;17.40;8.50;;;;;;;6.98;64.74;100445.83;117043;1183;21870;-60
2021/12/17 13:47:45;;;;;;;24.30;15.20;;;;;;;7.00;64.92;100447.58;117061;1182;23691;-58
2021/12/17 13:50:30;;;;;;;50.90;35.10;;;;;;;7.02;65.03;100442.35;117401;1181;23567;-59
2021/12/17 13:53:05;;;;;;;75.60;59.00;;;;;;;7.04;64.81;100446.20;117303;1184;22626;-60
2021/12/17 13:55:52;;;;;;;40.20;31.10;;;;;;;7.06;64.79;100444.81;117054;1184;22973;-61
2021/12/17 13:58:24;;;;;;;30.50;25.60;;;;;;;7.06;64.85;100444.64;117312;1185;21850;-59
2021/12/17 14:00:57;;;;;;;33.70;27.40;;;;;;;7.06;64.85;100448.65;117307;1184;23679;-59
2021/12/17 14:03:31;;;;;;;21.80;14.30;;;;;;;7.06;64.91;100445.85;117342;1185;21879;-60
2021/12/17 14:06:22;;;;;;;43.40;31.50;;;;;;;7.02;64.84;100451.26;117287;1188;23460;-60
2021/12/17 14:08:51;;;;;;;39.10;32.00;;;;;;;6.99;64.73;100449.49;117345;1185;21855;-58
2021/12/17 14:11:29;;;;;;;45.20;32.30;;;;;;;7.01;65.02;100452.98;117299;1188;21868;-59
2021/12/17 14:14:26;;;;;;;77.80;44.30;;;;;;;7.01;64.88;100451.60;117263;1184;22328;-62
2021/12/17 14:16:59;;;;;;;166.00;71.10;;;;;;;6.97;64.88;100459.26;117324;1185;22615;-60
2021/12/17 14:19:46;;;;;;;109.10;61.00;;;;;;;6.95;64.75;100458.55;117278;1186;21863;-60
2021/12/17 14:22:25;;;;;;;288.20;173.60;;;;;;;6.90;64.88;100461.48;117309;1186;21872;-58
2021/12/17 14:24:56;;;;;;;108.80;79.50;;;;;;;6.93;65.24;100462.55;117302;1184;21861;-57
2021/12/17 14:27:47;;;;;;;52.20;36.40;;;;;;;6.96;65.07;100461.17;117371;1186;21871;-60
2021/12/17 14:30:15;;;;;;;30.90;22.50;;;;;;;6.94;64.98;100461.68;117355;1183;21856;-57